sensor_id;sensor_type;location;lat;lon;timestamp;P1;durP1;ratioP1;P2;durP2;ratioP2
18140;SDS011;9196;49.194;12.526;2023-05-02T00:02:17;13.80;;;9.33;;
18140;SDS011;9196;49.194;12.526;2023-05-02T00:04:43;11.10;;;9.67;;
18140;SDS011;9196;49.194;12.526;2023-05-02T00:07:10;11.47;;;10.20;;
18140;SDS011;9196;49.194;12.526;2023-05-02T00:09:37;11.60;;;10.40;;
18140;SDS011;9196;49.194;12.526;2023-05-02T00:12:05;12.77;;;9.73;;
18140;SDS011;9196;49.194;12.526;2023-05-02T00:14:32;11.47;;;9.97;;
18140;SDS011;9196;49.194;12.526;2023-05-02T00:16:59;9.80;;;8.80;;
18140;SDS011;9196;49.194;12.526;2023-05-02T00:19:26;13.38;;;8.93;;
18140;SDS011;9196;49.194;12.526;2023-05-02T00:21:53;9.63;;;8.63;;
18140;SDS011;9196;49.194;12.526;2023-05-02T00:24:19;13.77;;;9.70;;
18140;SDS011;9196;49.194;12.526;2023-05-02T00:26:46;17.90;;;9.20;;
18140;SDS011;9196;49.194;12.526;2023-05-02T00:29:15;10.83;;;9.73;;
18140;SDS011;9196;49.194;12.526;2023-05-02T00:31:42;10.87;;;9.87;;
18140;SDS011;9196;49.194;12.526;2023-05-02T00:34:08;12.83;;;10.37;;
18140;SDS011;9196;49.194;12.526;2023-05-02T00:36:35;10.97;;;9.60;;
18140;SDS011;9196;49.194;12.526;2023-05-02T00:39:02;14.67;;;8.67;;
18140;SDS011;9196;49.194;12.526;2023-05-02T00:41:29;10.37;;;9.37;;
18140;SDS011;9196;49.194;12.526;2023-05-02T00:43:56;10.83;;;9.43;;
18140;SDS011;9196;49.194;12.526;2023-05-02T00:46:24;18.43;;;10.20;;
18140;SDS011;9196;49.194;12.526;2023-05-02T00:48:51;15.02;;;9.00;;
18140;SDS011;9196;49.194;12.526;2023-05-02T00:51:18;9.77;;;8.85;;
18140;SDS011;9196;49.194;12.526;2023-05-02T00:53:45;10.90;;;9.90;;
18140;SDS011;9196;49.194;12.526;2023-05-02T00:56:12;10.40;;;8.90;;
18140;SDS011;9196;49.194;12.526;2023-05-02T00:58:39;9.60;;;8.63;;
18140;SDS011;9196;49.194;12.526;2023-05-02T01:01:09;10.90;;;9.30;;
18140;SDS011;9196;49.194;12.526;2023-05-02T01:03:45;10.87;;;9.67;;
18140;SDS011;9196;49.194;12.526;2023-05-02T01:06:23;13.18;;;9.57;;
18140;SDS011;9196;49.194;12.526;2023-05-02T01:09:01;10.40;;;9.40;;
18140;SDS011;9196;49.194;12.526;2023-05-02T01:11:38;12.13;;;10.82;;
18140;SDS011;9196;49.194;12.526;2023-05-02T01:14:10;12.00;;;10.52;;
18140;SDS011;9196;49.194;12.526;2023-05-02T01:16:38;11.13;;;10.02;;
18140;SDS011;9196;49.194;12.526;2023-05-02T01:19:11;12.70;;;10.13;;
18140;SDS011;9196;49.194;12.526;2023-05-02T01:21:46;10.00;;;8.77;;
18140;SDS011;9196;49.194;12.526;2023-05-02T01:24:21;10.00;;;9.00;;
18140;SDS011;9196;49.194;12.526;2023-05-02T01:26:55;11.88;;;10.57;;
18140;SDS011;9196;49.194;12.526;2023-05-02T01:29:33;16.25;;;9.98;;
18140;SDS011;9196;49.194;12.526;2023-05-02T01:32:01;9.70;;;8.68;;
18140;SDS011;9196;49.194;12.526;2023-05-02T01:34:29;10.82;;;9.25;;
18140;SDS011;9196;49.194;12.526;2023-05-02T01:36:58;14.75;;;10.10;;
18140;SDS011;9196;49.194;12.526;2023-05-02T01:39:27;14.45;;;11.00;;
18140;SDS011;9196;49.194;12.526;2023-05-02T01:41:56;11.75;;;9.15;;
18140;SDS011;9196;49.194;12.526;2023-05-02T01:44:24;16.03;;;9.43;;
18140;SDS011;9196;49.194;12.526;2023-05-02T01:46:55;11.37;;;10.20;;
18140;SDS011;9196;49.194;12.526;2023-05-02T01:49:23;11.27;;;9.40;;
18140;SDS011;9196;49.194;12.526;2023-05-02T01:51:51;9.35;;;8.35;;
18140;SDS011;9196;49.194;12.526;2023-05-02T01:54:19;10.43;;;9.38;;
18140;SDS011;9196;49.194;12.526;2023-05-02T01:56:48;9.50;;;8.60;;
18140;SDS011;9196;49.194;12.526;2023-05-02T01:59:17;11.00;;;9.90;;
18140;SDS011;9196;49.194;12.526;2023-05-02T02:01:45;10.57;;;9.40;;
18140;SDS011;9196;49.194;12.526;2023-05-02T02:04:14;12.25;;;9.52;;
18140;SDS011;9196;49.194;12.526;2023-05-02T02:06:43;13.48;;;11.02;;
18140;SDS011;9196;49.194;12.526;2023-05-02T02:09:13;10.60;;;9.70;;
18140;SDS011;9196;49.194;12.526;2023-05-02T02:11:42;12.90;;;10.65;;
18140;SDS011;9196;49.194;12.526;2023-05-02T02:14:13;12.85;;;11.35;;
18140;SDS011;9196;49.194;12.526;2023-05-02T02:16:44;12.80;;;10.43;;
18140;SDS011;9196;49.194;12.526;2023-05-02T02:19:12;23.73;;;9.02;;
18140;SDS011;9196;49.194;12.526;2023-05-02T02:21:41;9.93;;;8.93;;
18140;SDS011;9196;49.194;12.526;2023-05-02T02:24:08;11.10;;;9.90;;
18140;SDS011;9196;49.194;12.526;2023-05-02T02:26:35;10.05;;;9.00;;
18140;SDS011;9196;49.194;12.526;2023-05-02T02:29:03;11.27;;;10.07;;
18140;SDS011;9196;49.194;12.526;2023-05-02T02:31:30;9.43;;;8.30;;
18140;SDS011;9196;49.194;12.526;2023-05-02T02:33:57;11.65;;;9.77;;
18140;SDS011;9196;49.194;12.526;2023-05-02T02:36:27;15.40;;;9.02;;
18140;SDS011;9196;49.194;12.526;2023-05-02T02:39:00;11.65;;;9.10;;
18140;SDS011;9196;49.194;12.526;2023-05-02T02:41:36;12.07;;;9.40;;
18140;SDS011;9196;49.194;12.526;2023-05-02T02:44:09;17.10;;;11.40;;
18140;SDS011;9196;49.194;12.526;2023-05-02T02:46:49;16.27;;;11.85;;
18140;SDS011;9196;49.194;12.526;2023-05-02T02:49:25;24.23;;;13.50;;
18140;SDS011;9196;49.194;12.526;2023-05-02T02:52:00;22.98;;;12.85;;
18140;SDS011;9196;49.194;12.526;2023-05-02T02:54:32;17.02;;;12.80;;
18140;SDS011;9196;49.194;12.526;2023-05-02T02:57:05;19.75;;;12.95;;
18140;SDS011;9196;49.194;12.526;2023-05-02T02:59:41;17.83;;;11.13;;
18140;SDS011;9196;49.194;12.526;2023-05-02T03:02:16;17.33;;;11.13;;
18140;SDS011;9196;49.194;12.526;2023-05-02T03:04:44;18.63;;;12.38;;
18140;SDS011;9196;49.194;12.526;2023-05-02T03:07:14;15.35;;;10.80;;
18140;SDS011;9196;49.194;12.526;2023-05-02T03:09:41;11.15;;;9.90;;
18140;SDS011;9196;49.194;12.526;2023-05-02T03:12:09;17.25;;;12.18;;
18140;SDS011;9196;49.194;12.526;2023-05-02T03:14:36;12.43;;;10.35;;
18140;SDS011;9196;49.194;12.526;2023-05-02T03:17:03;10.60;;;9.50;;
18140;SDS011;9196;49.194;12.526;2023-05-02T03:19:32;13.02;;;10.52;;
18140;SDS011;9196;49.194;12.526;2023-05-02T03:21:59;13.40;;;10.13;;
18140;SDS011;9196;49.194;12.526;2023-05-02T03:24:27;10.45;;;9.05;;
18140;SDS011;9196;49.194;12.526;2023-05-02T03:26:54;14.73;;;10.65;;
18140;SDS011;9196;49.194;12.526;2023-05-02T03:29:23;9.95;;;8.95;;
18140;SDS011;9196;49.194;12.526;2023-05-02T03:31:50;11.45;;;9.88;;
18140;SDS011;9196;49.194;12.526;2023-05-02T03:34:17;15.43;;;10.05;;
18140;SDS011;9196;49.194;12.526;2023-05-02T03:36:45;15.65;;;9.57;;
18140;SDS011;9196;49.194;12.526;2023-05-02T03:39:13;12.15;;;10.10;;
18140;SDS011;9196;49.194;12.526;2023-05-02T03:41:41;11.75;;;9.20;;
18140;SDS011;9196;49.194;12.526;2023-05-02T03:44:08;11.05;;;9.95;;
18140;SDS011;9196;49.194;12.526;2023-05-02T03:46:35;18.23;;;9.23;;
18140;SDS011;9196;49.194;12.526;2023-05-02T03:49:02;15.45;;;9.80;;
18140;SDS011;9196;49.194;12.526;2023-05-02T03:51:29;11.80;;;10.60;;
18140;SDS011;9196;49.194;12.526;2023-05-02T03:53:58;16.92;;;10.45;;
18140;SDS011;9196;49.194;12.526;2023-05-02T03:56:25;10.65;;;9.55;;
18140;SDS011;9196;49.194;12.526;2023-05-02T03:58:53;11.50;;;10.30;;
18140;SDS011;9196;49.194;12.526;2023-05-02T04:01:20;11.27;;;9.90;;
18140;SDS011;9196;49.194;12.526;2023-05-02T04:03:47;11.43;;;10.32;;
18140;SDS011;9196;49.194;12.526;2023-05-02T04:06:14;15.60;;;9.88;;
18140;SDS011;9196;49.194;12.526;2023-05-02T04:08:41;10.30;;;9.23;;
18140;SDS011;9196;49.194;12.526;2023-05-02T04:11:08;12.43;;;11.18;;
18140;SDS011;9196;49.194;12.526;2023-05-02T04:13:35;11.50;;;10.43;;
18140;SDS011;9196;49.194;12.526;2023-05-02T04:16:03;11.43;;;10.23;;
18140;SDS011;9196;49.194;12.526;2023-05-02T04:18:30;12.90;;;11.35;;
18140;SDS011;9196;49.194;12.526;2023-05-02T04:20:57;14.43;;;11.27;;
18140;SDS011;9196;49.194;12.526;2023-05-02T04:23:24;11.05;;;9.85;;
18140;SDS011;9196;49.194;12.526;2023-05-02T04:25:51;9.65;;;8.65;;
18140;SDS011;9196;49.194;12.526;2023-05-02T04:28:19;9.50;;;8.35;;
18140;SDS011;9196;49.194;12.526;2023-05-02T04:30:45;10.65;;;9.60;;
18140;SDS011;9196;49.194;12.526;2023-05-02T04:33:14;9.88;;;8.98;;
18140;SDS011;9196;49.194;12.526;2023-05-02T04:35:41;12.40;;;10.13;;
18140;SDS011;9196;49.194;12.526;2023-05-02T04:38:08;12.65;;;9.85;;
18140;SDS011;9196;49.194;12.526;2023-05-02T04:40:34;10.90;;;9.88;;
18140;SDS011;9196;49.194;12.526;2023-05-02T04:43:01;12.82;;;11.02;;
18140;SDS011;9196;49.194;12.526;2023-05-02T04:45:28;12.10;;;10.88;;
18140;SDS011;9196;49.194;12.526;2023-05-02T04:47:55;11.68;;;10.10;;
18140;SDS011;9196;49.194;12.526;2023-05-02T04:50:23;13.55;;;11.18;;
18140;SDS011;9196;49.194;12.526;2023-05-02T04:52:50;10.82;;;9.82;;
18140;SDS011;9196;49.194;12.526;2023-05-02T04:55:17;13.80;;;9.82;;
18140;SDS011;9196;49.194;12.526;2023-05-02T04:57:44;16.40;;;11.57;;
18140;SDS011;9196;49.194;12.526;2023-05-02T05:00:11;10.70;;;9.68;;
18140;SDS011;9196;49.194;12.526;2023-05-02T05:02:39;12.98;;;10.68;;
18140;SDS011;9196;49.194;12.526;2023-05-02T05:05:07;15.88;;;10.32;;
18140;SDS011;9196;49.194;12.526;2023-05-02T05:07:35;13.35;;;9.18;;
18140;SDS011;9196;49.194;12.526;2023-05-02T05:10:02;10.48;;;9.40;;
18140;SDS011;9196;49.194;12.526;2023-05-02T05:12:29;10.57;;;9.48;;
18140;SDS011;9196;49.194;12.526;2023-05-02T05:14:55;9.50;;;8.57;;
18140;SDS011;9196;49.194;12.526;2023-05-02T05:17:22;11.05;;;9.75;;
18140;SDS011;9196;49.194;12.526;2023-05-02T05:19:49;10.82;;;9.77;;
18140;SDS011;9196;49.194;12.526;2023-05-02T05:22:16;10.35;;;9.35;;
18140;SDS011;9196;49.194;12.526;2023-05-02T05:24:50;12.15;;;10.05;;
18140;SDS011;9196;49.194;12.526;2023-05-02T05:27:17;15.55;;;11.45;;
18140;SDS011;9196;49.194;12.526;2023-05-02T05:29:44;14.52;;;10.70;;
18140;SDS011;9196;49.194;12.526;2023-05-02T05:32:11;12.05;;;10.70;;
18140;SDS011;9196;49.194;12.526;2023-05-02T05:34:38;13.90;;;11.95;;
18140;SDS011;9196;49.194;12.526;2023-05-02T05:37:04;14.88;;;11.93;;
18140;SDS011;9196;49.194;12.526;2023-05-02T05:39:31;11.50;;;10.40;;
18140;SDS011;9196;49.194;12.526;2023-05-02T05:42:00;12.00;;;10.75;;
18140;SDS011;9196;49.194;12.526;2023-05-02T05:44:27;23.27;;;12.20;;
18140;SDS011;9196;49.194;12.526;2023-05-02T05:46:54;13.45;;;11.93;;
18140;SDS011;9196;49.194;12.526;2023-05-02T05:49:21;11.32;;;9.88;;
18140;SDS011;9196;49.194;12.526;2023-05-02T05:51:48;15.00;;;10.98;;
18140;SDS011;9196;49.194;12.526;2023-05-02T05:54:15;15.50;;;12.20;;
18140;SDS011;9196;49.194;12.526;2023-05-02T05:56:42;12.23;;;11.03;;
18140;SDS011;9196;49.194;12.526;2023-05-02T05:59:10;19.55;;;11.68;;
18140;SDS011;9196;49.194;12.526;2023-05-02T06:01:37;13.05;;;11.70;;
18140;SDS011;9196;49.194;12.526;2023-05-02T06:04:04;15.57;;;11.90;;
18140;SDS011;9196;49.194;12.526;2023-05-02T06:06:31;13.63;;;11.70;;
18140;SDS011;9196;49.194;12.526;2023-05-02T06:08:58;12.50;;;11.20;;
18140;SDS011;9196;49.194;12.526;2023-05-02T06:11:25;11.63;;;10.45;;
18140;SDS011;9196;49.194;12.526;2023-05-02T06:13:52;13.40;;;11.80;;
18140;SDS011;9196;49.194;12.526;2023-05-02T06:16:20;16.20;;;11.27;;
18140;SDS011;9196;49.194;12.526;2023-05-02T06:18:48;12.63;;;11.07;;
18140;SDS011;9196;49.194;12.526;2023-05-02T06:21:16;13.88;;;12.15;;
18140;SDS011;9196;49.194;12.526;2023-05-02T06:23:42;12.65;;;11.40;;
18140;SDS011;9196;49.194;12.526;2023-05-02T06:26:09;12.23;;;11.00;;
18140;SDS011;9196;49.194;12.526;2023-05-02T06:28:36;16.48;;;10.38;;
18140;SDS011;9196;49.194;12.526;2023-05-02T06:31:03;18.60;;;11.37;;
18140;SDS011;9196;49.194;12.526;2023-05-02T06:33:32;13.57;;;11.85;;
18140;SDS011;9196;49.194;12.526;2023-05-02T06:35:59;10.60;;;9.60;;
18140;SDS011;9196;49.194;12.526;2023-05-02T06:38:26;12.77;;;11.50;;
18140;SDS011;9196;49.194;12.526;2023-05-02T06:40:53;14.60;;;11.37;;
18140;SDS011;9196;49.194;12.526;2023-05-02T06:43:19;12.37;;;11.07;;
18140;SDS011;9196;49.194;12.526;2023-05-02T06:45:46;13.27;;;11.37;;
18140;SDS011;9196;49.194;12.526;2023-05-02T06:48:13;14.90;;;12.87;;
18140;SDS011;9196;49.194;12.526;2023-05-02T06:50:41;14.73;;;12.07;;
18140;SDS011;9196;49.194;12.526;2023-05-02T06:53:08;13.03;;;11.73;;
18140;SDS011;9196;49.194;12.526;2023-05-02T06:55:35;16.30;;;13.30;;
18140;SDS011;9196;49.194;12.526;2023-05-02T06:58:01;15.50;;;11.93;;
18140;SDS011;9196;49.194;12.526;2023-05-02T07:00:28;14.83;;;12.63;;
18140;SDS011;9196;49.194;12.526;2023-05-02T07:02:55;15.43;;;12.33;;
18140;SDS011;9196;49.194;12.526;2023-05-02T07:05:22;22.30;;;19.73;;
18140;SDS011;9196;49.194;12.526;2023-05-02T07:07:50;17.90;;;16.10;;
18140;SDS011;9196;49.194;12.526;2023-05-02T07:10:17;17.10;;;15.30;;
18140;SDS011;9196;49.194;12.526;2023-05-02T07:12:43;14.30;;;11.90;;
18140;SDS011;9196;49.194;12.526;2023-05-02T07:15:10;13.90;;;11.03;;
18140;SDS011;9196;49.194;12.526;2023-05-02T07:17:38;14.13;;;12.63;;
18140;SDS011;9196;49.194;12.526;2023-05-02T07:20:06;12.63;;;11.40;;
18140;SDS011;9196;49.194;12.526;2023-05-02T07:22:34;12.23;;;10.97;;
18140;SDS011;9196;49.194;12.526;2023-05-02T07:25:02;11.90;;;10.50;;
18140;SDS011;9196;49.194;12.526;2023-05-02T07:27:29;22.20;;;15.93;;
18140;SDS011;9196;49.194;12.526;2023-05-02T07:29:56;15.67;;;12.37;;
18140;SDS011;9196;49.194;12.526;2023-05-02T07:32:23;16.87;;;12.27;;
18140;SDS011;9196;49.194;12.526;2023-05-02T07:34:50;18.63;;;13.77;;
18140;SDS011;9196;49.194;12.526;2023-05-02T07:37:19;12.37;;;11.07;;
18140;SDS011;9196;49.194;12.526;2023-05-02T07:39:45;11.07;;;9.93;;
18140;SDS011;9196;49.194;12.526;2023-05-02T07:42:14;11.87;;;10.63;;
18140;SDS011;9196;49.194;12.526;2023-05-02T07:44:40;20.63;;;18.47;;
18140;SDS011;9196;49.194;12.526;2023-05-02T07:47:07;13.63;;;12.17;;
18140;SDS011;9196;49.194;12.526;2023-05-02T07:49:34;13.47;;;11.40;;
18140;SDS011;9196;49.194;12.526;2023-05-02T07:52:02;17.93;;;12.73;;
18140;SDS011;9196;49.194;12.526;2023-05-02T07:54:29;13.37;;;11.97;;
18140;SDS011;9196;49.194;12.526;2023-05-02T07:56:56;15.53;;;13.13;;
18140;SDS011;9196;49.194;12.526;2023-05-02T07:59:27;15.23;;;12.43;;
18140;SDS011;9196;49.194;12.526;2023-05-02T08:01:55;13.57;;;12.20;;
18140;SDS011;9196;49.194;12.526;2023-05-02T08:04:21;13.57;;;11.50;;
18140;SDS011;9196;49.194;12.526;2023-05-02T08:06:48;13.10;;;11.87;;
18140;SDS011;9196;49.194;12.526;2023-05-02T08:09:15;18.23;;;12.70;;
18140;SDS011;9196;49.194;12.526;2023-05-02T08:11:42;12.10;;;10.90;;
18140;SDS011;9196;49.194;12.526;2023-05-02T08:14:09;14.70;;;11.90;;
18140;SDS011;9196;49.194;12.526;2023-05-02T08:16:37;12.53;;;11.20;;
18140;SDS011;9196;49.194;12.526;2023-05-02T08:19:04;12.47;;;11.23;;
18140;SDS011;9196;49.194;12.526;2023-05-02T08:21:30;11.60;;;10.40;;
18140;SDS011;9196;49.194;12.526;2023-05-02T08:23:57;11.93;;;10.73;;
18140;SDS011;9196;49.194;12.526;2023-05-02T08:26:25;10.03;;;9.07;;
18140;SDS011;9196;49.194;12.526;2023-05-02T08:28:52;12.40;;;11.10;;
18140;SDS011;9196;49.194;12.526;2023-05-02T08:31:19;11.13;;;9.43;;
18140;SDS011;9196;49.194;12.526;2023-05-02T08:33:48;21.20;;;9.33;;
18140;SDS011;9196;49.194;12.526;2023-05-02T08:36:15;9.60;;;8.60;;
18140;SDS011;9196;49.194;12.526;2023-05-02T08:38:43;12.93;;;11.63;;
18140;SDS011;9196;49.194;12.526;2023-05-02T08:41:11;12.17;;;11.03;;
18140;SDS011;9196;49.194;12.526;2023-05-02T08:43:39;17.00;;;11.10;;
18140;SDS011;9196;49.194;12.526;2023-05-02T08:46:06;14.20;;;11.27;;
18140;SDS011;9196;49.194;12.526;2023-05-02T08:48:34;10.37;;;9.10;;
18140;SDS011;9196;49.194;12.526;2023-05-02T08:51:03;11.23;;;9.40;;
18140;SDS011;9196;49.194;12.526;2023-05-02T08:53:33;15.53;;;11.37;;
18140;SDS011;9196;49.194;12.526;2023-05-02T08:56:00;11.77;;;9.70;;
18140;SDS011;9196;49.194;12.526;2023-05-02T08:58:27;12.87;;;11.50;;
18140;SDS011;9196;49.194;12.526;2023-05-02T09:00:55;14.63;;;10.97;;
18140;SDS011;9196;49.194;12.526;2023-05-02T09:03:26;14.27;;;11.40;;
18140;SDS011;9196;49.194;12.526;2023-05-02T09:05:57;12.80;;;9.77;;
18140;SDS011;9196;49.194;12.526;2023-05-02T09:08:32;11.50;;;9.60;;
18140;SDS011;9196;49.194;12.526;2023-05-02T09:10:59;11.00;;;9.80;;
18140;SDS011;9196;49.194;12.526;2023-05-02T09:13:31;11.97;;;10.27;;
18140;SDS011;9196;49.194;12.526;2023-05-02T09:16:00;12.10;;;10.07;;
18140;SDS011;9196;49.194;12.526;2023-05-02T09:18:27;12.10;;;9.10;;
18140;SDS011;9196;49.194;12.526;2023-05-02T09:20:56;10.93;;;9.83;;
18140;SDS011;9196;49.194;12.526;2023-05-02T09:23:32;11.90;;;10.60;;
18140;SDS011;9196;49.194;12.526;2023-05-02T09:26:00;9.50;;;8.50;;
18140;SDS011;9196;49.194;12.526;2023-05-02T09:31:13;11.87;;;9.20;;
18140;SDS011;9196;49.194;12.526;2023-05-02T09:33:41;9.57;;;8.63;;
18140;SDS011;9196;49.194;12.526;2023-05-02T09:36:09;12.33;;;9.57;;
18140;SDS011;9196;49.194;12.526;2023-05-02T09:38:40;13.47;;;10.87;;
18140;SDS011;9196;49.194;12.526;2023-05-02T09:41:08;13.27;;;10.40;;
18140;SDS011;9196;49.194;12.526;2023-05-02T09:43:35;11.50;;;10.30;;
18140;SDS011;9196;49.194;12.526;2023-05-02T09:46:02;11.43;;;10.07;;
18140;SDS011;9196;49.194;12.526;2023-05-02T09:48:31;9.80;;;8.80;;
18140;SDS011;9196;49.194;12.526;2023-05-02T09:50:58;13.37;;;9.70;;
18140;SDS011;9196;49.194;12.526;2023-05-02T09:53:26;8.53;;;7.70;;
18140;SDS011;9196;49.194;12.526;2023-05-02T09:56:01;10.53;;;9.53;;
18140;SDS011;9196;49.194;12.526;2023-05-02T09:58:29;11.20;;;9.93;;
18140;SDS011;9196;49.194;12.526;2023-05-02T10:00:56;10.70;;;9.60;;
18140;SDS011;9196;49.194;12.526;2023-05-02T10:03:24;11.23;;;9.90;;
18140;SDS011;9196;49.194;12.526;2023-05-02T10:05:52;13.37;;;9.10;;
18140;SDS011;9196;49.194;12.526;2023-05-02T10:08:19;12.67;;;10.47;;
18140;SDS011;9196;49.194;12.526;2023-05-02T10:10:49;13.97;;;10.57;;
18140;SDS011;9196;49.194;12.526;2023-05-02T10:13:20;12.40;;;11.20;;
18140;SDS011;9196;49.194;12.526;2023-05-02T10:15:49;12.63;;;11.00;;
18140;SDS011;9196;49.194;12.526;2023-05-02T10:18:25;13.40;;;10.70;;
18140;SDS011;9196;49.194;12.526;2023-05-02T10:20:55;14.93;;;10.90;;
18140;SDS011;9196;49.194;12.526;2023-05-02T10:23:27;11.37;;;10.20;;
18140;SDS011;9196;49.194;12.526;2023-05-02T10:25:56;9.23;;;8.10;;
18140;SDS011;9196;49.194;12.526;2023-05-02T10:28:25;11.60;;;8.67;;
18140;SDS011;9196;49.194;12.526;2023-05-02T10:30:52;19.33;;;9.50;;
18140;SDS011;9196;49.194;12.526;2023-05-02T10:33:20;11.40;;;10.20;;
18140;SDS011;9196;49.194;12.526;2023-05-02T10:35:47;8.93;;;8.03;;
18140;SDS011;9196;49.194;12.526;2023-05-02T10:38:15;8.93;;;7.60;;
18140;SDS011;9196;49.194;12.526;2023-05-02T10:40:51;7.63;;;6.93;;
18140;SDS011;9196;49.194;12.526;2023-05-02T10:43:22;8.17;;;7.47;;
18140;SDS011;9196;49.194;12.526;2023-05-02T10:45:52;8.60;;;7.80;;
18140;SDS011;9196;49.194;12.526;2023-05-02T10:48:20;7.60;;;6.80;;
18140;SDS011;9196;49.194;12.526;2023-05-02T10:50:49;10.13;;;6.80;;
18140;SDS011;9196;49.194;12.526;2023-05-02T10:53:21;7.47;;;6.73;;
18140;SDS011;9196;49.194;12.526;2023-05-02T10:58:39;10.27;;;6.30;;
18140;SDS011;9196;49.194;12.526;2023-05-02T11:04:00;6.67;;;6.10;;
18140;SDS011;9196;49.194;12.526;2023-05-02T11:06:28;8.80;;;7.57;;
18140;SDS011;9196;49.194;12.526;2023-05-02T11:11:56;9.97;;;8.97;;
18140;SDS011;9196;49.194;12.526;2023-05-02T11:17:14;13.00;;;7.33;;
18140;SDS011;9196;49.194;12.526;2023-05-02T11:22:50;9.40;;;7.90;;
18140;SDS011;9196;49.194;12.526;2023-05-02T11:25:30;9.93;;;8.93;;
18140;SDS011;9196;49.194;12.526;2023-05-02T11:28:02;8.07;;;6.23;;
18140;SDS011;9196;49.194;12.526;2023-05-02T11:30:39;8.10;;;6.73;;
18140;SDS011;9196;49.194;12.526;2023-05-02T11:33:11;7.90;;;6.43;;
18140;SDS011;9196;49.194;12.526;2023-05-02T11:35:41;7.63;;;5.70;;
18140;SDS011;9196;49.194;12.526;2023-05-02T11:38:10;6.17;;;5.67;;
18140;SDS011;9196;49.194;12.526;2023-05-02T11:40:37;7.63;;;6.50;;
18140;SDS011;9196;49.194;12.526;2023-05-02T11:43:11;6.50;;;5.90;;
18140;SDS011;9196;49.194;12.526;2023-05-02T11:45:40;7.70;;;5.80;;
18140;SDS011;9196;49.194;12.526;2023-05-02T11:48:08;13.17;;;6.50;;
18140;SDS011;9196;49.194;12.526;2023-05-02T11:50:43;6.07;;;5.63;;
18140;SDS011;9196;49.194;12.526;2023-05-02T11:53:11;5.57;;;5.07;;
18140;SDS011;9196;49.194;12.526;2023-05-02T11:55:48;4.90;;;4.53;;
18140;SDS011;9196;49.194;12.526;2023-05-02T11:58:16;6.20;;;5.63;;
18140;SDS011;9196;49.194;12.526;2023-05-02T12:00:45;6.60;;;5.90;;
18140;SDS011;9196;49.194;12.526;2023-05-02T12:03:23;7.13;;;6.43;;
18140;SDS011;9196;49.194;12.526;2023-05-02T12:05:54;7.00;;;6.43;;
18140;SDS011;9196;49.194;12.526;2023-05-02T12:08:22;6.70;;;6.10;;
18140;SDS011;9196;49.194;12.526;2023-05-02T12:10:51;8.30;;;6.30;;
18140;SDS011;9196;49.194;12.526;2023-05-02T12:13:19;6.73;;;5.70;;
18140;SDS011;9196;49.194;12.526;2023-05-02T12:15:49;7.37;;;6.67;;
18140;SDS011;9196;49.194;12.526;2023-05-02T12:18:17;6.17;;;5.67;;
18140;SDS011;9196;49.194;12.526;2023-05-02T12:20:44;5.70;;;5.20;;
18140;SDS011;9196;49.194;12.526;2023-05-02T12:23:11;6.17;;;5.57;;
18140;SDS011;9196;49.194;12.526;2023-05-02T12:25:39;7.00;;;5.17;;
18140;SDS011;9196;49.194;12.526;2023-05-02T12:28:07;5.40;;;4.90;;
18140;SDS011;9196;49.194;12.526;2023-05-02T12:30:35;5.47;;;5.07;;
18140;SDS011;9196;49.194;12.526;2023-05-02T12:33:05;6.03;;;5.43;;
18140;SDS011;9196;49.194;12.526;2023-05-02T12:35:33;11.13;;;6.40;;
18140;SDS011;9196;49.194;12.526;2023-05-02T12:38:07;7.17;;;5.30;;
18140;SDS011;9196;49.194;12.526;2023-05-02T12:40:44;9.80;;;8.00;;
18140;SDS011;9196;49.194;12.526;2023-05-02T12:43:13;5.23;;;4.83;;
18140;SDS011;9196;49.194;12.526;2023-05-02T12:45:40;5.13;;;4.73;;
18140;SDS011;9196;49.194;12.526;2023-05-02T12:48:20;6.07;;;5.57;;
18140;SDS011;9196;49.194;12.526;2023-05-02T12:50:48;5.40;;;4.90;;
18140;SDS011;9196;49.194;12.526;2023-05-02T12:53:15;9.03;;;4.90;;
18140;SDS011;9196;49.194;12.526;2023-05-02T12:55:42;6.53;;;5.03;;
18140;SDS011;9196;49.194;12.526;2023-05-02T12:58:10;7.50;;;5.00;;
18140;SDS011;9196;49.194;12.526;2023-05-02T13:00:38;5.70;;;5.20;;
18140;SDS011;9196;49.194;12.526;2023-05-02T13:03:07;4.90;;;4.50;;
18140;SDS011;9196;49.194;12.526;2023-05-02T13:05:35;5.40;;;4.80;;
18140;SDS011;9196;49.194;12.526;2023-05-02T13:08:03;5.83;;;4.37;;
18140;SDS011;9196;49.194;12.526;2023-05-02T13:10:30;5.27;;;4.30;;
18140;SDS011;9196;49.194;12.526;2023-05-02T13:12:57;3.97;;;3.73;;
18140;SDS011;9196;49.194;12.526;2023-05-02T13:15:23;5.43;;;4.93;;
18140;SDS011;9196;49.194;12.526;2023-05-02T13:17:50;4.53;;;4.20;;
18140;SDS011;9196;49.194;12.526;2023-05-02T13:20:17;4.70;;;3.93;;
18140;SDS011;9196;49.194;12.526;2023-05-02T13:22:46;4.13;;;3.33;;
18140;SDS011;9196;49.194;12.526;2023-05-02T13:25:12;5.23;;;3.97;;
18140;SDS011;9196;49.194;12.526;2023-05-02T13:27:39;4.67;;;4.00;;
18140;SDS011;9196;49.194;12.526;2023-05-02T13:30:08;4.17;;;3.90;;
18140;SDS011;9196;49.194;12.526;2023-05-02T13:32:36;4.13;;;3.77;;
18140;SDS011;9196;49.194;12.526;2023-05-02T13:35:03;30.57;;;3.70;;
18140;SDS011;9196;49.194;12.526;2023-05-02T13:37:31;4.60;;;4.20;;
18140;SDS011;9196;49.194;12.526;2023-05-02T13:39:59;4.40;;;4.00;;
18140;SDS011;9196;49.194;12.526;2023-05-02T13:42:26;5.17;;;4.00;;
18140;SDS011;9196;49.194;12.526;2023-05-02T13:44:53;6.10;;;4.33;;
18140;SDS011;9196;49.194;12.526;2023-05-02T13:47:19;4.87;;;4.33;;
18140;SDS011;9196;49.194;12.526;2023-05-02T13:49:46;5.73;;;4.53;;
18140;SDS011;9196;49.194;12.526;2023-05-02T13:52:13;4.37;;;4.07;;
18140;SDS011;9196;49.194;12.526;2023-05-02T13:54:40;5.10;;;4.23;;
18140;SDS011;9196;49.194;12.526;2023-05-02T13:57:08;6.20;;;5.27;;
18140;SDS011;9196;49.194;12.526;2023-05-02T13:59:36;3.70;;;3.50;;
18140;SDS011;9196;49.194;12.526;2023-05-02T14:02:02;3.67;;;3.37;;
18140;SDS011;9196;49.194;12.526;2023-05-02T14:04:29;3.50;;;3.30;;
18140;SDS011;9196;49.194;12.526;2023-05-02T14:06:56;4.23;;;3.93;;
18140;SDS011;9196;49.194;12.526;2023-05-02T14:09:23;4.80;;;3.20;;
18140;SDS011;9196;49.194;12.526;2023-05-02T14:11:50;3.83;;;3.53;;
18140;SDS011;9196;49.194;12.526;2023-05-02T14:14:18;3.97;;;3.63;;
18140;SDS011;9196;49.194;12.526;2023-05-02T14:16:45;4.27;;;3.93;;
18140;SDS011;9196;49.194;12.526;2023-05-02T14:19:12;4.13;;;3.80;;
18140;SDS011;9196;49.194;12.526;2023-05-02T14:21:39;4.17;;;3.77;;
18140;SDS011;9196;49.194;12.526;2023-05-02T14:24:05;3.33;;;3.13;;
18140;SDS011;9196;49.194;12.526;2023-05-02T14:26:32;6.23;;;3.63;;
18140;SDS011;9196;49.194;12.526;2023-05-02T14:28:59;4.40;;;3.97;;
18140;SDS011;9196;49.194;12.526;2023-05-02T14:31:27;3.67;;;3.33;;
18140;SDS011;9196;49.194;12.526;2023-05-02T14:33:54;3.70;;;3.40;;
18140;SDS011;9196;49.194;12.526;2023-05-02T14:36:21;4.03;;;3.63;;
18140;SDS011;9196;49.194;12.526;2023-05-02T14:38:48;3.60;;;3.30;;
18140;SDS011;9196;49.194;12.526;2023-05-02T14:41:15;6.17;;;3.90;;
18140;SDS011;9196;49.194;12.526;2023-05-02T14:43:42;4.03;;;3.63;;
18140;SDS011;9196;49.194;12.526;2023-05-02T14:46:09;4.57;;;4.27;;
18140;SDS011;9196;49.194;12.526;2023-05-02T14:48:37;3.10;;;3.00;;
18140;SDS011;9196;49.194;12.526;2023-05-02T14:51:04;4.10;;;3.77;;
18140;SDS011;9196;49.194;12.526;2023-05-02T14:53:31;9.03;;;3.50;;
18140;SDS011;9196;49.194;12.526;2023-05-02T14:55:58;4.37;;;3.70;;
18140;SDS011;9196;49.194;12.526;2023-05-02T14:58:25;4.13;;;3.73;;